MSC Alexa — 3FPP6 — position and weather

sailwx.info

Track history (hours):
 
Tides and Currents Weather Stations Pressure Air Temp Water Temp Dewpoint Dewpoint Depression Visibility Wind Speed Wind Dir Waves Ship Positions

MSC Alexa

Last reported at 2018-May-22 04:25 UTC. Time now 2018-May-24 08:40 UTC.
Position N 01°14' E 103°59'.

Length 243 m; draft 8.6 m.

Type: Ship (hazmat cat B). MMSI: 356904000.

Date/timePositionNaut miles runAvg speedWind from/ knotsBaromVisibWave heightAir tempDewpointWater temp
2018-May-22 04:25N 01°14' E 103°59'715.6
2018-May-22 04:00N 01°12' E 103°53'612.0
2018-May-22 03:30N 01°14' E 103°47'3 6.2
2018-May-22 03:01N 01°16' E 103°46'0 0.0
2018-May-22 02:28N 01°16' E 103°46'0 0.0
2018-May-22 01:55N 01°16' E 103°46'0 0.0
2018-May-22 01:25N 01°16' E 103°46'0 0.0
2018-May-22 00:57N 01°16' E 103°46'0 0.0
2018-May-22 00:30N 01°16' E 103°46'0 0.0
2018-May-22 00:00N 01°16' E 103°46'0 0.0
2018-May-21 23:30N 01°16' E 103°46'0 0.0
2018-May-21 23:00N 01°16' E 103°46'0 0.0
2018-May-21 22:27N 01°16' E 103°46'0 0.0
2018-May-21 22:00N 01°16' E 103°46'0 0.0
2018-May-21 21:27N 01°16' E 103°46'0 0.0
2018-May-21 20:57N 01°16' E 103°46'0 0.0
2018-May-21 20:28N 01°16' E 103°46'0 0.0
2018-May-21 19:56N 01°16' E 103°46'0 0.0
2018-May-21 19:29N 01°16' E 103°46'0 0.0
2018-May-21 18:56N 01°16' E 103°46'0 0.0
2018-May-21 18:26N 01°16' E 103°46'0 0.0
2018-May-21 17:55N 01°16' E 103°46'0 0.0
2018-May-21 17:28N 01°16' E 103°46'0 0.0
2018-May-21 16:58N 01°16' E 103°46'0 0.0
2018-May-21 16:25N 01°16' E 103°46'0 0.0
2018-May-21 15:58N 01°16' E 103°46'0 0.0
2018-May-21 15:30N 01°16' E 103°46'0 0.0
2018-May-21 15:00N 01°16' E 103°46'0 0.0
2018-May-21 14:30N 01°16' E 103°46'0 0.0
2018-May-21 14:00N 01°16' E 103°46'0 0.0
2018-May-21 13:30N 01°16' E 103°46'0 0.0
2018-May-21 12:59N 01°16' E 103°46'0 0.0
2018-May-21 12:29N 01°16' E 103°46'0 0.0
2018-May-21 11:59N 01°16' E 103°46'0 0.0
2018-May-21 11:29N 01°16' E 103°46'0 0.0
2018-May-21 10:58N 01°16' E 103°46'0 0.0
2018-May-21 10:25N 01°16' E 103°46'0 0.0
2018-May-21 09:58N 01°16' E 103°46'0 0.0
2018-May-21 09:28N 01°16' E 103°46'0 0.0
2018-May-21 08:58N 01°16' E 103°46'0 0.0
2018-May-21 08:30N 01°16' E 103°46'0 0.0
2018-May-21 08:00N 01°16' E 103°46'0 0.0
2018-May-21 07:27N 01°16' E 103°46'0 0.0
2018-May-21 06:57N 01°16' E 103°46'0 0.0
2018-May-21 06:26N 01°16' E 103°46'0 0.0
2018-May-21 05:59N 01°16' E 103°46'0 0.0
2018-May-21 05:29N 01°16' E 103°46'0 0.0
2018-May-21 04:59N 01°16' E 103°46'0 0.0
2018-May-21 04:20N 01°16' E 103°46'0 0.0
2018-May-21 03:55N 01°16' E 103°46'0 0.0
2018-May-21 03:28N 01°16' E 103°46'0 0.0
2018-May-21 02:55N 01°16' E 103°46'0 0.0
2018-May-21 02:25N 01°16' E 103°46'0 0.0
2018-May-21 01:55N 01°16' E 103°46'0 0.0
2018-May-21 01:30N 01°16' E 103°46'0 0.0
2018-May-21 01:00N 01°16' E 103°46'0 0.0
2018-May-21 00:30N 01°16' E 103°46'0 0.0
2018-May-21 00:00N 01°16' E 103°46'0 0.0
2018-May-20 23:29N 01°16' E 103°46'0 0.2
2018-May-20 23:00N 01°16' E 103°46'1 2.0
2018-May-20 22:30N 01°15' E 103°47'3 6.9
2018-May-20 22:00N 01°13' E 103°49'5 9.8
2018-May-20 21:30N 01°14' E 103°53'2 3.9
2018-May-20 20:59N 01°14' E 103°55'3 5.6
2018-May-20 20:30N 01°15' E 103°58'4 8.0
2018-May-20 20:00N 01°16' E 104°02'4 8.4
2018-May-20 19:30N 01°16' E 104°06'5 9.0
2018-May-20 18:58N 01°17' E 104°11'4 8.9
2018-May-20 18:30N 01°17' E 104°15'5 9.0
2018-May-20 17:58N 01°19' E 104°20'4 9.2
2018-May-20 17:30N 01°21' E 104°23'6 9.6
2018-May-20 16:52N 01°25' E 104°28'  
2018-May-15 09:10N 01°26' E 104°30'417.6
2018-May-15 08:55N 01°23' E 104°26'717.2
2018-May-15 08:29N 01°18' E 104°21'816.7
2018-May-15 08:00N 01°16' E 104°13'816.3
2018-May-15 07:30N 01°15' E 104°05'714.4
2018-May-15 07:00N 01°14' E 103°58'714.3
2018-May-15 06:30N 01°12' E 103°51'4 8.1
2018-May-15 06:00N 01°14' E 103°47'3 5.3
2018-May-15 05:30N 01°16' E 103°46'0 0.0
2018-May-15 04:58N 01°16' E 103°46'0 0.0
2018-May-15 04:25N 01°16' E 103°46'0 0.0
2018-May-15 04:00N 01°16' E 103°46'0 0.0
2018-May-15 03:31N 01°16' E 103°46'0 0.0
2018-May-15 02:51N 01°16' E 103°46'0 0.0
2018-May-15 02:30N 01°16' E 103°46'0 0.0
2018-May-15 01:59N 01°16' E 103°46'0 0.0
2018-May-15 01:30N 01°16' E 103°46'0 0.0
2018-May-15 00:58N 01°16' E 103°46'0 0.0
2018-May-15 00:29N 01°16' E 103°46'0 0.0
2018-May-14 23:56N 01°16' E 103°46'0 0.0
2018-May-14 23:29N 01°16' E 103°46'0 0.1
2018-May-14 22:59N 01°16' E 103°46'0 0.1
2018-May-14 22:30N 01°16' E 103°46'0 0.0
2018-May-14 21:58N 01°16' E 103°46'0 0.0
2018-May-14 21:28N 01°16' E 103°46'0 0.0
2018-May-14 20:57N 01°16' E 103°46'0 0.0
2018-May-14 20:27N 01°16' E 103°46'0 0.0
2018-May-14 19:59N 01°16' E 103°46'0 0.0
2018-May-14 19:30N 01°16' E 103°46'0 0.0
2018-May-14 18:57N 01°16' E 103°46'0 0.0
2018-May-14 18:30N 01°16' E 103°46'0 0.0
2018-May-14 17:55N 01°16' E 103°46'0 0.0
2018-May-14 17:29N 01°16' E 103°46'0 0.0
2018-May-14 16:58N 01°16' E 103°46'0 0.0
2018-May-14 16:29N 01°16' E 103°46'0 0.0
2018-May-14 15:58N 01°16' E 103°46'0 0.0
2018-May-14 15:28N 01°16' E 103°46'0 0.0
2018-May-14 14:57N 01°16' E 103°46'0 0.0
2018-May-14 14:28N 01°16' E 103°46'0 0.0
2018-May-14 13:58N 01°16' E 103°46'0 0.0
2018-May-14 13:24N 01°16' E 103°46'0 0.0
2018-May-14 12:59N 01°16' E 103°46'0 0.0
2018-May-14 12:30N 01°16' E 103°46'0 0.0
2018-May-14 11:59N 01°16' E 103°46'0 0.0
2018-May-14 11:29N 01°16' E 103°46'0 0.0
2018-May-14 11:00N 01°16' E 103°46'0 0.0
2018-May-14 10:29N 01°16' E 103°46'0 0.0
2018-May-14 09:59N 01°16' E 103°46'0 0.0
2018-May-14 09:29N 01°16' E 103°46'0 0.0
2018-May-14 08:58N 01°16' E 103°46'0 0.0
2018-May-14 08:30N 01°16' E 103°46'0 0.0
2018-May-14 07:58N 01°16' E 103°46'0 0.0
2018-May-14 07:30N 01°16' E 103°46'0 0.0
2018-May-14 06:55N 01°16' E 103°46'0 0.0
2018-May-14 06:30N 01°16' E 103°46'0 0.0
2018-May-14 05:59N 01°16' E 103°46'0 0.0
2018-May-14 05:23N 01°16' E 103°46'0 0.0
2018-May-14 04:59N 01°16' E 103°46'0 0.0
2018-May-14 04:30N 01°16' E 103°46'0 0.0
2018-May-14 03:58N 01°16' E 103°46'0 0.0
2018-May-14 03:29N 01°16' E 103°46'0 0.0
2018-May-14 02:59N 01°16' E 103°46'0 0.0
2018-May-14 02:29N 01°16' E 103°46'0 0.0
2018-May-14 01:51N 01°16' E 103°46'0 0.0
2018-May-14 01:30N 01°16' E 103°46'0 0.0
2018-May-14 01:00N 01°16' E 103°46'0 0.0
2018-May-14 00:30N 01°16' E 103°46'0 0.0
2018-May-13 23:58N 01°16' E 103°46'0 0.0
2018-May-13 23:30N 01°16' E 103°46'1 1.9
2018-May-13 23:00N 01°15' E 103°46'3 5.8
2018-May-13 22:30N 01°14' E 103°43'611.3
2018-May-13 21:59N 01°12' E 103°38'4 7.6
2018-May-13 21:30N 01°13' E 103°34'2 4.4
2018-May-13 21:00N 01°12' E 103°32'2 3.8
2018-May-13 20:30N 01°10' E 103°33'1 1.2
2018-May-13 19:59N 01°09' E 103°33'0 0.9
2018-May-13 19:30N 01°09' E 103°33'0 0.5
2018-May-13 18:59N 01°09' E 103°34'0 0.2
2018-May-13 18:30N 01°09' E 103°34'1 1.9
2018-May-13 17:59N 01°10' E 103°33'3 6.4
2018-May-13 17:30N 01°13' E 103°32'4 7.5
2018-May-13 17:00N 01°16' E 103°33'4 6.9
2018-May-13 16:29N 01°20' E 103°33'0 0.1
2018-May-13 15:59N 01°20' E 103°33'0 0.0
2018-May-13 15:29N 01°20' E 103°33'0 0.0
2018-May-13 14:53N 01°20' E 103°33'0 0.0
2018-May-13 14:29N 01°20' E 103°33'0 0.0
2018-May-13 13:59N 01°20' E 103°33'0 0.0
2018-May-13 13:28N 01°20' E 103°33'0 0.0
2018-May-13 12:57N 01°20' E 103°33'0 0.0
2018-May-13 12:28N 01°20' E 103°33'0 0.0
2018-May-13 11:55N 01°20' E 103°33'0 0.0
2018-May-13 11:30N 01°20' E 103°33'0 0.0
2018-May-13 09:59N 01°20' E 103°33'0 0.0
2018-May-13 09:23N 01°20' E 103°33'0 0.0
2018-May-13 09:00N 01°20' E 103°33'0 0.0
2018-May-13 08:29N 01°20' E 103°33'0 0.0
2018-May-13 07:44N 01°20' E 103°33'0 0.0
2018-May-13 07:29N 01°20' E 103°33'0 0.0
2018-May-13 06:59N 01°20' E 103°33'0 0.1
2018-May-13 06:29N 01°20' E 103°33'2 3.8
2018-May-13 05:59N 01°18' E 103°33'4 9.3
2018-May-13 05:30N 01°14' E 103°32'1 1.4
2018-May-13 04:59N 01°13' E 103°32'3 5.5
2018-May-13 04:30N 01°10' E 103°32'2 4.3
2018-May-13 04:00N 01°10' E 103°34'0 0.4
2018-May-13 03:30N 01°10' E 103°34'0 0.5
2018-May-13 02:59N 01°10' E 103°34'0 0.5
2018-May-13 02:30N 01°10' E 103°33'0 0.5
2018-May-13 01:59N 01°09' E 103°33'0 0.5
2018-May-13 01:30N 01°09' E 103°33'0 0.6
2018-May-13 00:59N 01°09' E 103°33'0 0.4
2018-May-13 00:25N 01°09' E 103°33'2 3.8
2018-May-12 23:59N 01°10' E 103°34'4 7.8
2018-May-12 23:30N 01°12' E 103°37'4 7.2
2018-May-12 23:00N 01°11' E 103°41'4 9.0
2018-May-12 22:30N 01°09' E 103°45'611.5
2018-May-12 22:00N 01°11' E 103°50'611.3
2018-May-12 21:30N 01°14' E 103°55'713.0
2018-May-12 20:59N 01°15' E 104°02'712.7
2018-May-12 20:28N 01°16' E 104°08'612.4
2018-May-12 19:59N 01°17' E 104°14'713.3
2018-May-12 19:25N 01°20' E 104°21'613.2
2018-May-12 18:59N 01°23' E 104°26'  
Track history (hours):
 
Tides and Currents Weather Stations Pressure Air Temp Water Temp Dewpoint Dewpoint Depression Visibility Wind Speed Wind Dir Waves Ship Positions

MSC Alexa

Last reported at 2018-May-22 04:25 UTC. Time now 2018-May-24 08:40 UTC.
Position N 01°14' E 103°59'.

Length 243 m; draft 8.6 m.

Type: Ship (hazmat cat B). MMSI: 356904000.

Date/timePositionNaut miles runAvg speedWind from/ knotsBaromVisibWave heightAir tempDewpointWater temp
2018-May-22 04:25N 01°14' E 103°59'715.6
2018-May-22 04:00N 01°12' E 103°53'612.0
2018-May-22 03:30N 01°14' E 103°47'3 6.2
2018-May-22 03:01N 01°16' E 103°46'0 0.0
2018-May-22 02:28N 01°16' E 103°46'0 0.0
2018-May-22 01:55N 01°16' E 103°46'0 0.0
2018-May-22 01:25N 01°16' E 103°46'0 0.0
2018-May-22 00:57N 01°16' E 103°46'0 0.0
2018-May-22 00:30N 01°16' E 103°46'0 0.0
2018-May-22 00:00N 01°16' E 103°46'0 0.0
2018-May-21 23:30N 01°16' E 103°46'0 0.0
2018-May-21 23:00N 01°16' E 103°46'0 0.0
2018-May-21 22:27N 01°16' E 103°46'0 0.0
2018-May-21 22:00N 01°16' E 103°46'0 0.0
2018-May-21 21:27N 01°16' E 103°46'0 0.0
2018-May-21 20:57N 01°16' E 103°46'0 0.0
2018-May-21 20:28N 01°16' E 103°46'0 0.0
2018-May-21 19:56N 01°16' E 103°46'0 0.0
2018-May-21 19:29N 01°16' E 103°46'0 0.0
2018-May-21 18:56N 01°16' E 103°46'0 0.0
2018-May-21 18:26N 01°16' E 103°46'0 0.0
2018-May-21 17:55N 01°16' E 103°46'0 0.0
2018-May-21 17:28N 01°16' E 103°46'0 0.0
2018-May-21 16:58N 01°16' E 103°46'0 0.0
2018-May-21 16:25N 01°16' E 103°46'0 0.0
2018-May-21 15:58N 01°16' E 103°46'0 0.0
2018-May-21 15:30N 01°16' E 103°46'0 0.0
2018-May-21 15:00N 01°16' E 103°46'0 0.0
2018-May-21 14:30N 01°16' E 103°46'0 0.0
2018-May-21 14:00N 01°16' E 103°46'0 0.0
2018-May-21 13:30N 01°16' E 103°46'0 0.0
2018-May-21 12:59N 01°16' E 103°46'0 0.0
2018-May-21 12:29N 01°16' E 103°46'0 0.0
2018-May-21 11:59N 01°16' E 103°46'0 0.0
2018-May-21 11:29N 01°16' E 103°46'0 0.0
2018-May-21 10:58N 01°16' E 103°46'0 0.0
2018-May-21 10:25N 01°16' E 103°46'0 0.0
2018-May-21 09:58N 01°16' E 103°46'0 0.0
2018-May-21 09:28N 01°16' E 103°46'0 0.0
2018-May-21 08:58N 01°16' E 103°46'0 0.0
2018-May-21 08:30N 01°16' E 103°46'0 0.0
2018-May-21 08:00N 01°16' E 103°46'0 0.0
2018-May-21 07:27N 01°16' E 103°46'0 0.0
2018-May-21 06:57N 01°16' E 103°46'0 0.0
2018-May-21 06:26N 01°16' E 103°46'0 0.0
2018-May-21 05:59N 01°16' E 103°46'0 0.0
2018-May-21 05:29N 01°16' E 103°46'0 0.0
2018-May-21 04:59N 01°16' E 103°46'0 0.0
2018-May-21 04:20N 01°16' E 103°46'0 0.0
2018-May-21 03:55N 01°16' E 103°46'0 0.0
2018-May-21 03:28N 01°16' E 103°46'0 0.0
2018-May-21 02:55N 01°16' E 103°46'0 0.0
2018-May-21 02:25N 01°16' E 103°46'0 0.0
2018-May-21 01:55N 01°16' E 103°46'0 0.0
2018-May-21 01:30N 01°16' E 103°46'0 0.0
2018-May-21 01:00N 01°16' E 103°46'0 0.0
2018-May-21 00:30N 01°16' E 103°46'0 0.0
2018-May-21 00:00N 01°16' E 103°46'0 0.0
2018-May-20 23:29N 01°16' E 103°46'0 0.2
2018-May-20 23:00N 01°16' E 103°46'1 2.0
2018-May-20 22:30N 01°15' E 103°47'3 6.9
2018-May-20 22:00N 01°13' E 103°49'5 9.8
2018-May-20 21:30N 01°14' E 103°53'2 3.9
2018-May-20 20:59N 01°14' E 103°55'3 5.6
2018-May-20 20:30N 01°15' E 103°58'4 8.0
2018-May-20 20:00N 01°16' E 104°02'4 8.4
2018-May-20 19:30N 01°16' E 104°06'5 9.0
2018-May-20 18:58N 01°17' E 104°11'4 8.9
2018-May-20 18:30N 01°17' E 104°15'5 9.0
2018-May-20 17:58N 01°19' E 104°20'4 9.2
2018-May-20 17:30N 01°21' E 104°23'6 9.6
2018-May-20 16:52N 01°25' E 104°28'  
2018-May-15 09:10N 01°26' E 104°30'417.6
2018-May-15 08:55N 01°23' E 104°26'717.2
2018-May-15 08:29N 01°18' E 104°21'816.7
2018-May-15 08:00N 01°16' E 104°13'816.3
2018-May-15 07:30N 01°15' E 104°05'714.4
2018-May-15 07:00N 01°14' E 103°58'714.3
2018-May-15 06:30N 01°12' E 103°51'4 8.1
2018-May-15 06:00N 01°14' E 103°47'3 5.3
2018-May-15 05:30N 01°16' E 103°46'0 0.0
2018-May-15 04:58N 01°16' E 103°46'0 0.0
2018-May-15 04:25N 01°16' E 103°46'0 0.0
2018-May-15 04:00N 01°16' E 103°46'0 0.0
2018-May-15 03:31N 01°16' E 103°46'0 0.0
2018-May-15 02:51N 01°16' E 103°46'0 0.0
2018-May-15 02:30N 01°16' E 103°46'0 0.0
2018-May-15 01:59N 01°16' E 103°46'0 0.0
2018-May-15 01:30N 01°16' E 103°46'0 0.0
2018-May-15 00:58N 01°16' E 103°46'0 0.0
2018-May-15 00:29N 01°16' E 103°46'0 0.0
2018-May-14 23:56N 01°16' E 103°46'0 0.0
2018-May-14 23:29N 01°16' E 103°46'0 0.1
2018-May-14 22:59N 01°16' E 103°46'0 0.1
2018-May-14 22:30N 01°16' E 103°46'0 0.0
2018-May-14 21:58N 01°16' E 103°46'0 0.0
2018-May-14 21:28N 01°16' E 103°46'0 0.0
2018-May-14 20:57N 01°16' E 103°46'0 0.0
2018-May-14 20:27N 01°16' E 103°46'0 0.0
2018-May-14 19:59N 01°16' E 103°46'0 0.0
2018-May-14 19:30N 01°16' E 103°46'0 0.0
2018-May-14 18:57N 01°16' E 103°46'0 0.0
2018-May-14 18:30N 01°16' E 103°46'0 0.0
2018-May-14 17:55N 01°16' E 103°46'0 0.0
2018-May-14 17:29N 01°16' E 103°46'0 0.0
2018-May-14 16:58N 01°16' E 103°46'0 0.0
2018-May-14 16:29N 01°16' E 103°46'0 0.0
2018-May-14 15:58N 01°16' E 103°46'0 0.0
2018-May-14 15:28N 01°16' E 103°46'0 0.0
2018-May-14 14:57N 01°16' E 103°46'0 0.0
2018-May-14 14:28N 01°16' E 103°46'0 0.0
2018-May-14 13:58N 01°16' E 103°46'0 0.0
2018-May-14 13:24N 01°16' E 103°46'0 0.0
2018-May-14 12:59N 01°16' E 103°46'0 0.0
2018-May-14 12:30N 01°16' E 103°46'0 0.0
2018-May-14 11:59N 01°16' E 103°46'0 0.0
2018-May-14 11:29N 01°16' E 103°46'0 0.0
2018-May-14 11:00N 01°16' E 103°46'0 0.0
2018-May-14 10:29N 01°16' E 103°46'0 0.0
2018-May-14 09:59N 01°16' E 103°46'0 0.0
2018-May-14 09:29N 01°16' E 103°46'0 0.0
2018-May-14 08:58N 01°16' E 103°46'0 0.0
2018-May-14 08:30N 01°16' E 103°46'0 0.0
2018-May-14 07:58N 01°16' E 103°46'0 0.0
2018-May-14 07:30N 01°16' E 103°46'0 0.0
2018-May-14 06:55N 01°16' E 103°46'0 0.0
2018-May-14 06:30N 01°16' E 103°46'0 0.0
2018-May-14 05:59N 01°16' E 103°46'0 0.0
2018-May-14 05:23N 01°16' E 103°46'0 0.0
2018-May-14 04:59N 01°16' E 103°46'0 0.0
2018-May-14 04:30N 01°16' E 103°46'0 0.0
2018-May-14 03:58N 01°16' E 103°46'0 0.0
2018-May-14 03:29N 01°16' E 103°46'0 0.0
2018-May-14 02:59N 01°16' E 103°46'0 0.0
2018-May-14 02:29N 01°16' E 103°46'0 0.0
2018-May-14 01:51N 01°16' E 103°46'0 0.0
2018-May-14 01:30N 01°16' E 103°46'0 0.0
2018-May-14 01:00N 01°16' E 103°46'0 0.0
2018-May-14 00:30N 01°16' E 103°46'0 0.0
2018-May-13 23:58N 01°16' E 103°46'0 0.0
2018-May-13 23:30N 01°16' E 103°46'1 1.9
2018-May-13 23:00N 01°15' E 103°46'3 5.8
2018-May-13 22:30N 01°14' E 103°43'611.3
2018-May-13 21:59N 01°12' E 103°38'4 7.6
2018-May-13 21:30N 01°13' E 103°34'2 4.4
2018-May-13 21:00N 01°12' E 103°32'2 3.8
2018-May-13 20:30N 01°10' E 103°33'1 1.2
2018-May-13 19:59N 01°09' E 103°33'0 0.9
2018-May-13 19:30N 01°09' E 103°33'0 0.5
2018-May-13 18:59N 01°09' E 103°34'0 0.2
2018-May-13 18:30N 01°09' E 103°34'1 1.9
2018-May-13 17:59N 01°10' E 103°33'3 6.4
2018-May-13 17:30N 01°13' E 103°32'4 7.5
2018-May-13 17:00N 01°16' E 103°33'4 6.9
2018-May-13 16:29N 01°20' E 103°33'0 0.1
2018-May-13 15:59N 01°20' E 103°33'0 0.0
2018-May-13 15:29N 01°20' E 103°33'0 0.0
2018-May-13 14:53N 01°20' E 103°33'0 0.0
2018-May-13 14:29N 01°20' E 103°33'0 0.0
2018-May-13 13:59N 01°20' E 103°33'0 0.0
2018-May-13 13:28N 01°20' E 103°33'0 0.0
2018-May-13 12:57N 01°20' E 103°33'0 0.0
2018-May-13 12:28N 01°20' E 103°33'0 0.0
2018-May-13 11:55N 01°20' E 103°33'0 0.0
2018-May-13 11:30N 01°20' E 103°33'0 0.0
2018-May-13 09:59N 01°20' E 103°33'0 0.0
2018-May-13 09:23N 01°20' E 103°33'0 0.0
2018-May-13 09:00N 01°20' E 103°33'0 0.0
2018-May-13 08:29N 01°20' E 103°33'0 0.0
2018-May-13 07:44N 01°20' E 103°33'0 0.0
2018-May-13 07:29N 01°20' E 103°33'0 0.0
2018-May-13 06:59N 01°20' E 103°33'0 0.1
2018-May-13 06:29N 01°20' E 103°33'2 3.8
2018-May-13 05:59N 01°18' E 103°33'4 9.3
2018-May-13 05:30N 01°14' E 103°32'1 1.4
2018-May-13 04:59N 01°13' E 103°32'3 5.5
2018-May-13 04:30N 01°10' E 103°32'2 4.3
2018-May-13 04:00N 01°10' E 103°34'0 0.4
2018-May-13 03:30N 01°10' E 103°34'0 0.5
2018-May-13 02:59N 01°10' E 103°34'0 0.5
2018-May-13 02:30N 01°10' E 103°33'0 0.5
2018-May-13 01:59N 01°09' E 103°33'0 0.5
2018-May-13 01:30N 01°09' E 103°33'0 0.6
2018-May-13 00:59N 01°09' E 103°33'0 0.4
2018-May-13 00:25N 01°09' E 103°33'2 3.8
2018-May-12 23:59N 01°10' E 103°34'4 7.8
2018-May-12 23:30N 01°12' E 103°37'4 7.2
2018-May-12 23:00N 01°11' E 103°41'4 9.0
2018-May-12 22:30N 01°09' E 103°45'611.5
2018-May-12 22:00N 01°11' E 103°50'611.3
2018-May-12 21:30N 01°14' E 103°55'713.0
2018-May-12 20:59N 01°15' E 104°02'712.7
2018-May-12 20:28N 01°16' E 104°08'612.4
2018-May-12 19:59N 01°17' E 104°14'713.3
2018-May-12 19:25N 01°20' E 104°21'613.2
2018-May-12 18:59N 01°23' E 104°26'  

Dump ship's entire track history